Knickerbocker, Texas
Current Conditions -  °F | °C
As of 1:51 AM on Thursday 29 Jan 2015 (Local Time) from KSJT Reporting Station
Clear Clear  
Wind Chill: 52°   Ceiling: Unl
Heat Index: 52°   Visibility: 10mi
Dew Point: 41°   Wind: 3mph
Humidity: 66%   Direction: 270°W
Pressure: 30.1"   Gusts: NA
Location:  31.27°N, 100.62°W
Report Text: KSJT 290751Z AUTO 27003KT 10SM CLR 11/05 A3010 RMK AO2 SLP179 T01110050
Loading
Personal Weather Stations






























Interactive Weather Map New forecast layout! Learn more

10-Day Weather Forecast

Advertisements
Track Severe Weather on mobile